createdAt,value
2022-08-03T00:00:24.524Z,17.30
2022-08-03T00:05:28.281Z,17.31
2022-08-03T00:10:32.638Z,17.24
2022-08-03T00:15:35.889Z,17.28
2022-08-03T00:20:39.262Z,17.16
2022-08-03T00:25:43.289Z,17.20
2022-08-03T00:30:46.841Z,17.22
2022-08-03T00:35:51.293Z,17.22
2022-08-03T00:40:56.089Z,17.23
2022-08-03T00:45:59.438Z,17.25
2022-08-03T00:51:03.358Z,17.25
2022-08-03T00:56:06.543Z,17.23
2022-08-03T01:01:10.008Z,17.22
2022-08-03T01:06:15.832Z,17.30
2022-08-03T01:12:00.240Z,17.24
2022-08-03T01:17:12.693Z,17.22
2022-08-03T01:22:22.814Z,17.14
2022-08-03T01:27:39.337Z,17.10
2022-08-03T01:33:11.826Z,17.00
2022-08-03T01:38:24.232Z,16.91
2022-08-03T01:44:27.005Z,16.82
2022-08-03T01:48:55.550Z,16.73
2022-08-03T01:54:01.200Z,16.84
2022-08-03T01:59:07.650Z,16.94
2022-08-03T02:04:14.136Z,16.86
2022-08-03T02:09:20.074Z,16.84
2022-08-03T02:14:24.273Z,16.79
2022-08-03T02:19:33.772Z,16.74
2022-08-03T02:24:39.290Z,16.71
2022-08-03T02:29:47.507Z,16.64
2022-08-03T02:34:55.926Z,16.59
2022-08-03T02:40:04.900Z,16.56
2022-08-03T02:45:15.149Z,16.51
2022-08-03T02:50:20.911Z,16.36
2022-08-03T02:55:26.692Z,16.29
2022-08-03T03:00:32.278Z,16.21
2022-08-03T03:05:55.448Z,16.18
2022-08-03T03:11:01.980Z,16.12
2022-08-03T03:16:06.770Z,16.07
2022-08-03T03:21:11.123Z,16.11
2022-08-03T03:26:16.512Z,16.04
2022-08-03T03:31:20.476Z,16.00
2022-08-03T03:36:23.646Z,15.96
2022-08-03T03:41:27.673Z,15.88
2022-08-03T03:46:38.626Z,15.76
2022-08-03T03:51:41.738Z,15.77
2022-08-03T03:56:45.664Z,15.69
2022-08-03T04:01:58.754Z,15.66
2022-08-03T04:07:21.535Z,15.73
2022-08-03T04:12:29.205Z,15.67
2022-08-03T04:17:33.642Z,15.56
2022-08-03T04:22:40.170Z,15.66
2022-08-03T04:27:44.284Z,15.73
2022-08-03T04:33:03.659Z,15.89
2022-08-03T04:38:08.425Z,16.09
2022-08-03T04:43:15.784Z,16.42
2022-08-03T04:48:20.598Z,16.85
2022-08-03T04:53:24.815Z,17.25
2022-08-03T04:58:28.009Z,17.70
2022-08-03T05:03:32.159Z,18.17
2022-08-03T05:08:36.200Z,18.55
2022-08-03T05:13:49.807Z,18.88
2022-08-03T05:18:53.568Z,19.17
2022-08-03T05:23:56.582Z,19.63
2022-08-03T05:28:59.622Z,19.92
2022-08-03T05:34:02.703Z,20.27
2022-08-03T05:39:06.249Z,20.62
2022-08-03T05:44:09.533Z,20.98
2022-08-03T05:49:12.939Z,21.32
2022-08-03T05:54:17.027Z,21.61
2022-08-03T05:59:37.761Z,21.91
2022-08-03T06:04:42.457Z,22.24
2022-08-03T06:10:35.999Z,22.57
2022-08-03T06:15:11.202Z,22.92
2022-08-03T06:20:17.377Z,23.24
2022-08-03T06:25:21.520Z,24.17
2022-08-03T06:30:25.072Z,28.40
2022-08-03T06:35:28.493Z,29.41
2022-08-03T06:40:32.565Z,31.01
2022-08-03T06:45:36.302Z,32.59
2022-08-03T06:50:41.746Z,32.45
2022-08-03T06:55:45.975Z,32.95
2022-08-03T07:00:49.093Z,32.55
2022-08-03T07:05:52.124Z,32.39
2022-08-03T07:10:57.354Z,32.40
2022-08-03T07:16:01.342Z,32.21
2022-08-03T07:21:05.082Z,32.85
2022-08-03T07:26:08.221Z,31.96
2022-08-03T07:31:12.271Z,31.23
2022-08-03T07:36:15.436Z,31.48
2022-08-03T07:41:18.620Z,32.18
2022-08-03T07:46:22.111Z,32.82
2022-08-03T07:51:30.054Z,32.00
2022-08-03T07:56:33.121Z,32.05
2022-08-03T08:01:38.203Z,31.76
2022-08-03T08:06:41.788Z,32.73
2022-08-03T08:11:45.437Z,33.11
2022-08-03T08:16:49.964Z,31.71
2022-08-03T08:22:02.187Z,31.83
2022-08-03T08:27:06.183Z,32.01
2022-08-03T08:32:11.545Z,32.92
2022-08-03T08:37:14.746Z,32.43
2022-08-03T08:42:18.673Z,32.85
2022-08-03T08:47:26.139Z,32.48
2022-08-03T08:52:31.972Z,32.52
2022-08-03T08:57:45.992Z,31.41
2022-08-03T09:02:50.696Z,32.03
2022-08-03T09:07:54.153Z,32.14
2022-08-03T09:12:57.266Z,31.87
2022-08-03T09:18:02.355Z,32.67
2022-08-03T09:23:51.855Z,32.86
2022-08-03T09:28:59.704Z,32.17
2022-08-03T09:34:15.026Z,32.80
2022-08-03T09:39:41.467Z,32.63
2022-08-03T09:44:52.742Z,32.13
2022-08-03T09:50:02.589Z,32.11
2022-08-03T09:56:30.746Z,33.28
2022-08-03T10:01:00.398Z,32.19
2022-08-03T10:06:19.911Z,33.15
2022-08-03T10:11:36.243Z,32.54
2022-08-03T10:16:46.785Z,33.07
2022-08-03T10:22:08.548Z,34.03
2022-08-03T10:27:13.801Z,33.23
2022-08-03T10:32:36.782Z,31.97
2022-08-03T10:37:57.060Z,32.80
2022-08-03T10:43:10.491Z,31.77
2022-08-03T10:48:14.796Z,31.97
2022-08-03T10:53:33.996Z,33.28
2022-08-03T10:58:38.189Z,33.96
2022-08-03T11:03:56.538Z,34.22
2022-08-03T11:09:12.690Z,33.39
2022-08-03T11:14:22.214Z,33.13
2022-08-03T11:19:56.482Z,33.06
2022-08-03T11:25:01.460Z,33.42
2022-08-03T11:30:09.872Z,32.84
2022-08-03T11:35:24.723Z,33.75
2022-08-03T11:40:41.709Z,33.46
2022-08-03T11:46:03.085Z,32.74
2022-08-03T11:51:08.054Z,32.86
2022-08-03T11:56:13.017Z,33.27
2022-08-03T12:01:21.224Z,31.63
2022-08-03T12:06:26.444Z,29.96
2022-08-03T12:11:33.484Z,27.37
2022-08-03T12:16:37.929Z,28.46
2022-08-03T12:21:56.639Z,29.46
2022-08-03T12:27:03.790Z,29.72
2022-08-03T12:32:07.586Z,30.22
2022-08-03T12:37:22.163Z,31.72
2022-08-03T12:42:36.595Z,30.74
2022-08-03T12:48:02.540Z,30.67
2022-08-03T12:53:09.064Z,30.71
2022-08-03T12:58:34.140Z,31.14
2022-08-03T13:03:50.293Z,31.76
2022-08-03T13:09:07.795Z,31.43
2022-08-03T13:14:16.710Z,32.73
2022-08-03T13:19:23.326Z,33.87
2022-08-03T13:24:27.309Z,34.19
2022-08-03T13:29:35.097Z,33.84
2022-08-03T13:34:38.599Z,33.72
2022-08-03T13:39:58.078Z,34.23
2022-08-03T13:45:04.821Z,34.58
2022-08-03T13:50:08.133Z,34.98
2022-08-03T13:55:12.169Z,33.24
2022-08-03T14:00:27.043Z,33.95
2022-08-03T14:05:32.482Z,34.89
2022-08-03T14:10:39.181Z,33.54
2022-08-03T14:15:42.846Z,33.33
2022-08-03T14:20:56.165Z,31.79
2022-08-03T14:26:01.120Z,30.77
2022-08-03T14:31:08.186Z,30.40
2022-08-03T14:36:19.300Z,30.45
2022-08-03T14:41:23.614Z,30.25
2022-08-03T14:46:26.696Z,29.56
2022-08-03T14:51:30.673Z,29.36
2022-08-03T14:56:35.440Z,29.08
2022-08-03T15:02:02.450Z,28.77
2022-08-03T15:07:01.892Z,28.28
2022-08-03T15:12:08.837Z,27.87
2022-08-03T15:17:12.472Z,27.75
2022-08-03T15:22:19.037Z,27.58
2022-08-03T15:27:24.660Z,27.43
2022-08-03T15:32:28.137Z,27.51
2022-08-03T15:37:31.174Z,27.64
2022-08-03T15:42:35.347Z,28.27
2022-08-03T15:47:38.405Z,28.62
2022-08-03T15:52:42.718Z,28.53
2022-08-03T15:59:03.571Z,28.67
2022-08-03T16:03:10.453Z,29.03
2022-08-03T16:08:14.119Z,29.14
2022-08-03T16:13:17.719Z,28.91
2022-08-03T16:18:22.137Z,28.78
2022-08-03T16:23:26.257Z,28.60
2022-08-03T16:28:38.284Z,28.27
2022-08-03T16:33:42.141Z,27.95
2022-08-03T16:38:45.224Z,27.81
2022-08-03T16:43:49.326Z,27.58
2022-08-03T16:48:52.825Z,27.45
2022-08-03T16:54:07.348Z,27.07
2022-08-03T16:59:13.712Z,27.25
2022-08-03T17:04:16.871Z,26.90
2022-08-03T17:09:20.572Z,26.60
2022-08-03T17:14:28.322Z,26.38
2022-08-03T17:19:36.813Z,26.13
2022-08-03T17:24:45.910Z,25.95
2022-08-03T17:29:53.448Z,25.67
2022-08-03T17:34:57.310Z,25.43
2022-08-03T17:40:03.763Z,25.16
2022-08-03T17:45:08.028Z,24.68
2022-08-03T17:50:25.177Z,24.57
2022-08-03T18:01:59.299Z,23.88
2022-08-03T18:06:56.260Z,23.53
2022-08-03T18:12:02.625Z,23.37
2022-08-03T18:17:10.304Z,23.19
2022-08-03T18:22:14.265Z,23.02
2022-08-03T18:27:19.585Z,22.84
2022-08-03T18:32:25.376Z,22.63
2022-08-03T18:37:29.850Z,22.59
2022-08-03T18:42:34.226Z,22.28
2022-08-03T18:47:59.068Z,22.34
2022-08-03T18:54:02.790Z,22.31
2022-08-03T18:59:30.506Z,22.16
2022-08-03T19:04:37.146Z,22.00
2022-08-03T19:09:58.602Z,21.96
2022-08-03T19:15:06.068Z,21.95
2022-08-03T19:20:14.122Z,21.85
2022-08-03T19:25:19.529Z,21.73
2022-08-03T19:30:38.827Z,21.72
2022-08-03T19:35:51.271Z,21.57
2022-08-03T19:41:04.000Z,21.55
2022-08-03T19:46:13.406Z,21.49
2022-08-03T19:51:17.933Z,21.73
2022-08-03T19:56:31.172Z,21.95
2022-08-03T20:01:50.264Z,21.69
2022-08-03T20:06:57.382Z,21.44
2022-08-03T20:12:00.890Z,21.48
2022-08-03T20:17:04.661Z,21.29
2022-08-03T20:22:14.506Z,21.03
2022-08-03T20:27:21.902Z,20.82
2022-08-03T20:32:34.712Z,20.68
2022-08-03T20:37:38.129Z,20.65
2022-08-03T20:42:41.811Z,20.59
2022-08-03T20:47:50.463Z,20.55
2022-08-03T20:52:55.463Z,20.60
2022-08-03T20:58:00.726Z,20.49
2022-08-03T21:03:08.919Z,20.33
2022-08-03T21:08:14.050Z,20.13
2022-08-03T21:13:04.404Z,24.27
2022-08-03T21:13:30.471Z,20.01
2022-08-03T21:18:37.625Z,19.98
2022-08-03T21:23:48.697Z,19.91
2022-08-03T21:28:55.776Z,19.86
2022-08-03T21:34:03.310Z,19.71
2022-08-03T21:39:09.621Z,19.60
2022-08-03T21:44:13.415Z,19.69
2022-08-03T21:50:04.433Z,19.65
2022-08-03T21:54:44.227Z,19.43
2022-08-03T21:59:54.585Z,19.40
2022-08-03T22:04:58.555Z,19.24
2022-08-03T22:10:02.861Z,19.22
2022-08-03T22:15:09.506Z,19.21
2022-08-03T22:20:15.412Z,19.08
2022-08-03T22:25:21.483Z,19.03
2022-08-03T22:30:25.923Z,18.86
2022-08-03T22:35:32.415Z,19.03
2022-08-03T22:40:51.385Z,18.96
2022-08-03T22:46:10.447Z,18.96
2022-08-03T22:51:17.222Z,18.89
2022-08-03T22:56:21.359Z,18.98
2022-08-03T23:01:26.606Z,18.90
2022-08-03T23:06:36.036Z,18.95
2022-08-03T23:11:45.825Z,18.91
2022-08-03T23:16:51.923Z,18.98
2022-08-03T23:22:02.226Z,18.94
2022-08-03T23:27:08.401Z,18.95
2022-08-03T23:32:13.584Z,18.90
2022-08-03T23:37:18.608Z,18.90
2022-08-03T23:42:23.205Z,18.93
2022-08-03T23:47:45.937Z,18.81
2022-08-03T23:53:00.808Z,18.90
2022-08-03T23:58:15.897Z,18.87
